Time;durP1;ratioP1;P1;durP2;ratioP2;P2;SDS_P1;SDS_P2;PMS_P1;PMS_P2;Temp;Humidity;BMP_temperature;BMP_pressure;BME280_temperature;BME280_humidity;BME280_pressure;Samples;Min_cycle;Max_cycle;Signal;HPM_P1;HPM_P2
2022/07/26 00:02:09;;;;;;;10.52;3.13;;;18.20;99.90;;;;;;4823383;29;20054;-67
2022/07/26 00:04:35;;;;;;;7.88;2.70;;;18.20;99.90;;;;;;4830173;29;20060;-67
2022/07/26 00:07:00;;;;;;;12.23;3.00;;;18.20;99.90;;;;;;4835045;29;20441;-67
2022/07/26 00:09:26;;;;;;;13.95;3.83;;;18.20;99.90;;;;;;4830750;29;20045;-66
2022/07/26 00:11:52;;;;;;;13.25;3.20;;;18.20;99.90;;;;;;4821532;29;20058;-66
2022/07/26 00:14:17;;;;;;;10.73;3.30;;;18.20;99.90;;;;;;4804930;29;20089;-66
2022/07/26 00:16:43;;;;;;;12.13;3.30;;;18.30;99.90;;;;;;4806804;29;20086;-67
2022/07/26 00:19:09;;;;;;;13.35;3.75;;;18.20;99.90;;;;;;4808472;29;20054;-67
2022/07/26 00:21:36;;;;;;;11.13;3.15;;;18.20;99.90;;;;;;4830344;29;20092;-67
2022/07/26 00:24:03;;;;;;;11.73;3.47;;;18.20;99.90;;;;;;4839111;29;20115;-66
2022/07/26 00:26:29;;;;;;;8.45;2.58;;;18.20;99.90;;;;;;4831276;29;20046;-67
2022/07/26 00:28:55;;;;;;;11.55;3.17;;;18.20;99.90;;;;;;4842218;29;20137;-67
2022/07/26 00:31:21;;;;;;;8.95;3.38;;;18.20;99.90;;;;;;4832547;29;20054;-66
2022/07/26 00:33:46;;;;;;;10.70;3.13;;;18.10;99.90;;;;;;4812915;29;20054;-67
2022/07/26 00:36:12;;;;;;;11.02;3.33;;;18.10;99.90;;;;;;4823610;29;20047;-67
2022/07/26 00:38:39;;;;;;;9.55;2.85;;;18.10;99.90;;;;;;4821730;29;20416;-67
2022/07/26 00:41:05;;;;;;;10.50;2.80;;;18.10;99.90;;;;;;4810529;29;20488;-66
2022/07/26 00:43:31;;;;;;;9.90;2.92;;;18.00;99.90;;;;;;4807364;29;20050;-67
2022/07/26 00:45:56;;;;;;;13.45;3.63;;;18.00;99.90;;;;;;4823353;29;20419;-67
2022/07/26 00:48:22;;;;;;;13.30;3.30;;;18.00;99.90;;;;;;4837958;29;20073;-67
2022/07/26 00:50:48;;;;;;;10.45;3.38;;;18.00;99.90;;;;;;4841284;29;20053;-66
2022/07/26 00:53:14;;;;;;;12.00;3.40;;;18.00;99.90;;;;;;4824172;29;20059;-67
2022/07/26 00:55:39;;;;;;;10.18;2.90;;;17.90;99.90;;;;;;4822147;29;20062;-66
2022/07/26 00:58:05;;;;;;;14.95;3.70;;;17.90;99.90;;;;;;4822406;29;20141;-67
2022/07/26 01:00:32;;;;;;;13.38;3.22;;;17.90;99.90;;;;;;4835482;29;20065;-66
2022/07/26 01:02:59;;;;;;;21.98;3.85;;;17.80;99.90;;;;;;4823489;29;20069;-67
2022/07/26 01:05:25;;;;;;;11.20;3.30;;;17.80;99.90;;;;;;4842987;29;20050;-67
2022/07/26 01:07:52;;;;;;;9.57;3.25;;;17.90;99.90;;;;;;4843353;29;20120;-67
2022/07/26 01:10:18;;;;;;;11.18;3.15;;;17.80;99.90;;;;;;4844635;29;20058;-66
2022/07/26 01:12:44;;;;;;;11.00;3.63;;;17.70;99.90;;;;;;4843277;29;20058;-67
2022/07/26 01:15:12;;;;;;;11.18;3.13;;;17.60;99.90;;;;;;4844934;29;20069;-67
2022/07/26 01:17:37;;;;;;;11.20;3.53;;;17.60;99.90;;;;;;4844522;29;20083;-66
2022/07/26 01:20:05;;;;;;;10.52;3.35;;;17.50;99.90;;;;;;4844710;29;20514;-67
2022/07/26 01:22:31;;;;;;;12.70;3.75;;;17.50;99.90;;;;;;4842534;29;20133;-66
2022/07/26 01:24:57;;;;;;;11.57;3.08;;;17.50;99.90;;;;;;4843148;29;20137;-66
2022/07/26 01:27:23;;;;;;;14.43;3.65;;;17.60;99.90;;;;;;4844221;29;20229;-66
2022/07/26 01:29:50;;;;;;;11.70;3.17;;;17.60;99.90;;;;;;4845507;29;20459;-66
2022/07/26 01:32:16;;;;;;;10.80;3.17;;;17.60;99.90;;;;;;4843634;29;20050;-67
2022/07/26 01:34:42;;;;;;;11.63;3.30;;;17.60;99.90;;;;;;4841868;29;20053;-67
2022/07/26 01:37:08;;;;;;;9.38;3.35;;;17.60;99.90;;;;;;4843400;29;20411;-66
2022/07/26 01:39:33;;;;;;;14.30;3.97;;;17.60;99.90;;;;;;4831059;29;20137;-67
2022/07/26 01:41:59;;;;;;;9.90;3.30;;;17.60;99.90;;;;;;4841611;29;20050;-66
2022/07/26 01:44:25;;;;;;;13.45;3.53;;;17.60;99.90;;;;;;4844384;29;20046;-66
2022/07/26 01:46:50;;;;;;;12.68;3.53;;;17.50;99.90;;;;;;4843016;29;20403;-67
2022/07/26 01:49:16;;;;;;;7.85;3.33;;;17.50;99.90;;;;;;4844191;29;20061;-67
2022/07/26 01:51:42;;;;;;;12.85;3.60;;;17.50;99.90;;;;;;4842226;29;20057;-67
2022/07/26 01:54:08;;;;;;;11.25;3.45;;;17.40;99.90;;;;;;4826514;29;20050;-66
2022/07/26 01:56:33;;;;;;;6.90;3.10;;;17.40;99.90;;;;;;4842182;29;20157;-66
2022/07/26 01:58:59;;;;;;;10.85;3.22;;;17.40;99.90;;;;;;4844580;29;20501;-66
2022/07/26 02:01:24;;;;;;;10.48;3.30;;;17.40;99.90;;;;;;4843601;29;20050;-66
2022/07/26 02:03:50;;;;;;;10.18;3.15;;;17.40;99.90;;;;;;4840371;29;20083;-66
2022/07/26 02:06:15;;;;;;;8.27;3.25;;;17.40;99.90;;;;;;4842264;29;20119;-66
2022/07/26 02:08:41;;;;;;;9.35;2.97;;;17.40;99.90;;;;;;4843496;29;20058;-66
2022/07/26 02:11:07;;;;;;;8.40;2.85;;;17.40;99.90;;;;;;4842007;29;20064;-66
2022/07/26 02:13:40;;;;;;;10.75;4.00;;;17.40;99.90;;;;;;4839482;29;20057;-66
2022/07/26 02:16:12;;;;;;;7.30;3.17;;;17.50;99.90;;;;;;4843201;29;20061;-66
2022/07/26 02:18:39;;;;;;;;;;;17.50;99.90;;;;;;4844185;29;20093;-67
2022/07/26 02:21:05;;;;;;;10.40;3.25;;;17.50;99.90;;;;;;4842127;29;19924;-66
2022/07/26 02:23:32;;;;;;;14.18;3.25;;;17.50;99.90;;;;;;4844965;29;20065;-67
2022/07/26 02:25:58;;;;;;;8.98;3.50;;;17.50;99.90;;;;;;4841772;29;20536;-66
2022/07/26 02:28:23;;;;;;;14.35;3.65;;;17.50;99.90;;;;;;4844529;29;20062;-66
2022/07/26 02:30:50;;;;;;;8.35;3.35;;;17.50;99.90;;;;;;4840540;29;20487;-67
2022/07/26 02:33:16;;;;;;;9.88;3.15;;;17.50;99.90;;;;;;4842251;29;20046;-67
2022/07/26 02:35:42;;;;;;;9.80;4.18;;;17.50;99.90;;;;;;4842520;29;20049;-67
2022/07/26 02:38:10;;;;;;;10.00;3.70;;;17.50;99.90;;;;;;4841379;29;20052;-66
2022/07/26 02:40:37;;;;;;;8.27;3.08;;;17.50;99.90;;;;;;4840447;29;20049;-66
2022/07/26 02:43:04;;;;;;;8.48;3.42;;;17.50;99.90;;;;;;4839728;29;20065;-67
2022/07/26 02:45:30;;;;;;;10.10;3.47;;;17.50;99.90;;;;;;4843275;29;20424;-66
2022/07/26 02:47:56;;;;;;;10.93;3.42;;;17.60;99.90;;;;;;4840927;29;20046;-66
2022/07/26 02:50:23;;;;;;;11.68;3.45;;;17.60;99.90;;;;;;4843943;29;20057;-67
2022/07/26 02:52:50;;;;;;;8.10;3.30;;;17.60;99.90;;;;;;4836831;29;20054;-67
2022/07/26 02:55:17;;;;;;;10.52;3.30;;;17.60;99.90;;;;;;4857409;29;20070;-66
2022/07/26 02:57:43;;;;;;;9.80;3.20;;;17.60;99.90;;;;;;4843512;29;20066;-67
2022/07/26 03:00:11;;;;;;;8.93;3.13;;;17.60;99.90;;;;;;4840805;29;20439;-67
2022/07/26 03:02:37;;;;;;;10.98;3.17;;;17.60;99.90;;;;;;4842429;29;20057;-67
2022/07/26 03:05:04;;;;;;;11.35;3.22;;;17.60;99.90;;;;;;4840511;29;20054;-67
2022/07/26 03:07:30;;;;;;;9.63;3.60;;;17.60;99.90;;;;;;4839467;29;20121;-66
2022/07/26 03:09:55;;;;;;;10.30;3.65;;;17.60;99.90;;;;;;4843253;29;20130;-67
2022/07/26 03:12:21;;;;;;;9.05;3.20;;;17.60;99.90;;;;;;4838944;29;20445;-66
2022/07/26 03:14:47;;;;;;;8.82;3.22;;;17.60;99.90;;;;;;4840789;29;20162;-67
2022/07/26 03:17:12;;;;;;;7.57;3.30;;;17.60;99.90;;;;;;4843107;29;20058;-67
2022/07/26 03:19:38;;;;;;;8.50;3.30;;;17.60;99.90;;;;;;4842356;29;20050;-66
2022/07/26 03:22:03;;;;;;;9.43;3.33;;;17.60;99.90;;;;;;4839146;29;20068;-66
2022/07/26 03:24:29;;;;;;;10.13;3.80;;;17.60;99.90;;;;;;4840382;29;20046;-67
2022/07/26 03:26:54;;;;;;;7.47;2.72;;;17.60;99.90;;;;;;4843048;29;20516;-67
2022/07/26 03:29:20;;;;;;;8.18;3.53;;;17.60;99.90;;;;;;4842868;29;20103;-67
2022/07/26 03:31:46;;;;;;;9.75;3.80;;;17.60;99.90;;;;;;4839567;29;20068;-67
2022/07/26 03:34:12;;;;;;;7.57;3.13;;;17.60;99.90;;;;;;4839693;29;20053;-66
2022/07/26 03:36:38;;;;;;;10.77;3.33;;;17.60;99.90;;;;;;4823220;29;20058;-67
2022/07/26 03:39:03;;;;;;;5.22;2.45;;;17.60;99.90;;;;;;4837561;29;20054;-66
2022/07/26 03:41:30;;;;;;;4.03;2.25;;;17.60;99.90;;;;;;4839504;29;20110;-66
2022/07/26 03:43:56;;;;;;;4.10;2.00;;;17.60;99.90;;;;;;4842880;29;20050;-66
2022/07/26 03:46:48;;;;;;;3.15;2.00;;;17.60;99.90;;;;;;4840154;29;20274;-67
2022/07/26 03:49:13;;;;;;;2.83;2.00;;;17.60;99.90;;;;;;4841756;29;20096;-66
2022/07/26 03:51:40;;;;;;;4.32;1.70;;;17.60;99.90;;;;;;4840281;29;20107;-66
2022/07/26 03:54:41;;;;;;;7.00;2.42;;;17.60;99.90;;;;;;4839283;29;20049;-66
2022/07/26 03:57:59;;;;;;;4.20;1.60;;;17.60;99.90;;;;;;4841996;29;20054;-66
2022/07/26 04:00:27;;;;;;;3.80;1.90;;;17.60;99.90;;;;;;4840179;29;20564;-66
2022/07/26 04:02:56;;;;;;;6.78;2.17;;;17.60;99.90;;;;;;4838830;29;20457;-66
2022/07/26 04:05:22;;;;;;;5.90;1.77;;;17.50;99.90;;;;;;4839267;29;20057;-67
2022/07/26 04:07:49;;;;;;;3.10;1.60;;;17.50;99.90;;;;;;4841730;29;20053;-67
2022/07/26 04:10:22;;;;;;;3.58;1.65;;;17.60;99.90;;;;;;4841130;29;20046;-67
2022/07/26 04:15:40;;;;;;;4.28;1.80;;;17.50;99.90;;;;;;4852625;29;20069;-67
2022/07/26 04:18:06;;;;;;;4.00;1.88;;;17.50;99.90;;;;;;4842277;29;20126;-67
2022/07/26 04:20:45;;;;;;;4.63;2.00;;;17.50;99.90;;;;;;4841189;29;20156;-67
2022/07/26 04:23:10;;;;;;;4.75;2.00;;;17.50;99.90;;;;;;4841807;29;20054;-67
2022/07/26 04:25:36;;;;;;;3.13;1.77;;;17.50;99.90;;;;;;4841163;29;20514;-67
2022/07/26 04:28:02;;;;;;;3.95;1.90;;;17.40;99.90;;;;;;4840577;29;20060;-67
2022/07/26 04:30:33;;;;;;;3.45;1.70;;;17.40;99.90;;;;;;4841442;29;20080;-67
2022/07/26 04:32:59;;;;;;;4.97;2.15;;;17.40;99.90;;;;;;4839499;29;20054;-67
2022/07/26 04:35:25;;;;;;;3.72;2.03;;;17.30;99.90;;;;;;4840358;29;20077;-67
2022/07/26 04:37:51;;;;;;;6.97;2.20;;;17.30;99.90;;;;;;4839351;29;20050;-67
2022/07/26 04:40:18;;;;;;;5.10;1.60;;;17.40;99.90;;;;;;4823953;29;20125;-67
2022/07/26 04:42:48;;;;;;;3.17;1.50;;;17.30;99.90;;;;;;4843246;29;20054;-67
2022/07/26 04:45:14;;;;;;;3.78;1.77;;;17.30;99.90;;;;;;4843169;29;20416;-67
2022/07/26 04:48:04;;;;;;;4.03;1.60;;;17.30;99.90;;;;;;4844239;29;20057;-67
2022/07/26 04:50:29;;;;;;;5.95;1.70;;;17.40;99.90;;;;;;4826741;29;20066;-67
2022/07/26 04:52:55;;;;;;;5.38;2.20;;;17.40;99.90;;;;;;4836446;29;20056;-67
2022/07/26 04:55:22;;;;;;;3.42;1.60;;;17.40;99.90;;;;;;4844915;29;20042;-67
2022/07/26 04:57:48;;;;;;;6.05;1.50;;;17.40;99.90;;;;;;4844737;29;20106;-67
2022/07/26 05:00:20;;;;;;;5.13;1.75;;;17.40;99.90;;;;;;4844399;29;20511;-67
2022/07/26 05:02:45;;;;;;;4.70;1.95;;;17.40;99.90;;;;;;4843158;29;20133;-67
2022/07/26 05:05:11;;;;;;;4.18;1.42;;;17.50;99.90;;;;;;4842813;29;20883;-66
2022/07/26 05:07:45;;;;;;;5.68;1.48;;;17.40;99.90;;;;;;4840240;29;20114;-67
2022/07/26 05:10:12;;;;;;;3.90;1.02;;;17.50;99.90;;;;;;4841651;29;20115;-67
2022/07/26 05:12:38;;;;;;;3.28;0.98;;;17.50;99.90;;;;;;4838826;29;20054;-66
2022/07/26 05:15:05;;;;;;;4.65;1.60;;;17.50;99.90;;;;;;4836189;29;20061;-66
2022/07/26 05:17:31;;;;;;;5.32;1.27;;;17.50;99.90;;;;;;4837300;29;20054;-66
2022/07/26 05:19:58;;;;;;;2.70;1.17;;;17.50;99.90;;;;;;4840072;29;20054;-66
2022/07/26 05:22:24;;;;;;;5.43;1.20;;;17.50;99.90;;;;;;4835241;29;20117;-66
2022/07/26 05:24:50;;;;;;;6.82;1.85;;;17.50;99.90;;;;;;4842724;29;20054;-66
2022/07/26 05:27:16;;;;;;;4.63;1.42;;;17.50;99.90;;;;;;4836197;29;20057;-66
2022/07/26 05:29:43;;;;;;;6.22;1.50;;;17.60;99.90;;;;;;4844438;29;20054;-66
2022/07/26 05:32:08;;;;;;;2.53;0.98;;;17.60;99.90;;;;;;4841591;29;20057;-65
2022/07/26 05:34:34;;;;;;;4.72;1.20;;;17.60;99.90;;;;;;4842520;29;20062;-65
2022/07/26 05:36:59;;;;;;;2.45;1.30;;;17.60;99.90;;;;;;4843838;29;20046;-65
2022/07/26 05:39:26;;;;;;;3.90;0.85;;;17.70;99.90;;;;;;4844235;29;20137;-64
2022/07/26 05:41:51;;;;;;;3.22;0.95;;;17.60;99.90;;;;;;4844671;29;20054;-65
2022/07/26 05:44:17;;;;;;;2.85;1.02;;;17.60;99.90;;;;;;4843411;29;20053;-65
2022/07/26 05:46:42;;;;;;;3.25;0.80;;;17.50;99.90;;;;;;4857075;29;20062;-65
2022/07/26 05:49:08;;;;;;;4.18;0.93;;;17.50;99.90;;;;;;4844530;29;20053;-65
2022/07/26 05:51:33;;;;;;;3.90;0.73;;;17.50;99.90;;;;;;4844056;29;20073;-66
2022/07/26 05:53:59;;;;;;;2.15;0.80;;;17.50;99.90;;;;;;4845043;29;20141;-66
2022/07/26 05:56:24;;;;;;;4.35;1.38;;;17.50;99.90;;;;;;4839488;29;20081;-66
2022/07/26 05:58:50;;;;;;;3.97;0.90;;;17.50;99.90;;;;;;4844535;29;20073;-66
2022/07/26 06:01:16;;;;;;;4.43;0.85;;;17.60;99.90;;;;;;4844441;29;20161;-66
2022/07/26 06:03:42;;;;;;;3.17;0.93;;;17.80;99.90;;;;;;4825047;29;20065;-66
2022/07/26 06:06:08;;;;;;;3.20;0.82;;;17.70;99.90;;;;;;4825337;29;20074;-68
2022/07/26 06:08:35;;;;;;;4.72;0.90;;;17.70;99.90;;;;;;4807321;29;20054;-67
2022/07/26 06:11:01;;;;;;;5.32;0.88;;;17.70;99.90;;;;;;4826305;29;20058;-67
2022/07/26 06:13:26;;;;;;;3.40;0.98;;;17.80;99.90;;;;;;4826300;29;20106;-68
2022/07/26 06:15:52;;;;;;;4.65;1.00;;;17.70;99.90;;;;;;4809926;29;20058;-67
2022/07/26 06:18:17;;;;;;;4.82;0.80;;;17.80;99.90;;;;;;4823719;29;20054;-67
2022/07/26 06:20:45;;;;;;;4.18;1.20;;;17.80;99.90;;;;;;4809204;29;20058;-68
2022/07/26 06:23:11;;;;;;;2.13;0.80;;;17.80;99.90;;;;;;4825519;29;20183;-68
2022/07/26 06:25:37;;;;;;;3.35;0.90;;;17.70;99.90;;;;;;4809640;29;20095;-67
2022/07/26 06:28:05;;;;;;;2.35;0.75;;;17.60;99.90;;;;;;4825607;29;20054;-69
2022/07/26 06:30:31;;;;;;;5.35;0.70;;;17.40;99.90;;;;;;4807751;29;20058;-68
2022/07/26 06:32:56;;;;;;;2.50;0.85;;;17.30;99.90;;;;;;4825347;29;20073;-68
2022/07/26 06:35:23;;;;;;;3.20;0.60;;;17.20;99.90;;;;;;4825709;29;20054;-67
2022/07/26 06:37:49;;;;;;;1.52;0.50;;;17.10;99.90;;;;;;4823837;29;20498;-67
2022/07/26 06:40:15;;;;;;;4.85;0.90;;;17.10;99.90;;;;;;4825827;29;20054;-67
2022/07/26 06:42:41;;;;;;;2.80;1.17;;;17.10;99.90;;;;;;4809168;29;20053;-67
2022/07/26 06:45:06;;;;;;;2.05;0.70;;;17.20;99.90;;;;;;4809303;29;20454;-67
2022/07/26 06:47:34;;;;;;;2.92;0.80;;;17.20;99.90;;;;;;4809082;29;20434;-67
2022/07/26 06:50:00;;;;;;;2.67;0.73;;;17.30;99.90;;;;;;4825602;29;20069;-68
2022/07/26 06:52:25;;;;;;;4.55;0.93;;;17.40;99.90;;;;;;4824837;29;20055;-68
2022/07/26 06:54:51;;;;;;;3.42;0.80;;;17.60;99.90;;;;;;4809044;29;20137;-66
2022/07/26 06:57:17;;;;;;;3.22;0.93;;;17.70;99.90;;;;;;4825054;29;20078;-67
2022/07/26 06:59:42;;;;;;;3.90;0.70;;;17.70;99.90;;;;;;4834210;29;20123;-68
2022/07/26 07:02:08;;;;;;;4.43;0.70;;;17.70;99.90;;;;;;4842500;29;20057;-67
2022/07/26 07:04:34;;;;;;;2.13;0.73;;;17.70;99.90;;;;;;4843915;29;20190;-68
2022/07/26 07:07:04;;;;;;;9.45;1.05;;;17.70;99.90;;;;;;4842697;29;20206;-67
2022/07/26 07:09:33;;;;;;;3.40;0.65;;;17.70;99.90;;;;;;4842754;29;20054;-68
2022/07/26 07:12:01;;;;;;;2.53;0.57;;;17.90;99.90;;;;;;4841861;29;20611;-67
2022/07/26 07:14:27;;;;;;;3.58;0.90;;;18.10;99.90;;;;;;4843288;29;20072;-67
2022/07/26 07:16:52;;;;;;;2.20;0.60;;;18.30;99.90;;;;;;4843498;29;20050;-67
2022/07/26 07:19:18;;;;;;;1.80;0.70;;;18.60;99.90;;;;;;4843295;29;20054;-67
2022/07/26 07:21:43;;;;;;;3.33;0.80;;;18.50;99.90;;;;;;4841444;29;20533;-67
2022/07/26 07:24:09;;;;;;;4.20;0.90;;;18.60;99.90;;;;;;4843245;29;20062;-68
2022/07/26 07:26:34;;;;;;;2.58;0.70;;;18.50;99.90;;;;;;4841793;29;20065;-68
2022/07/26 07:29:00;;;;;;;5.05;0.68;;;18.50;99.90;;;;;;4827396;29;20062;-67
2022/07/26 07:31:25;;;;;;;2.42;0.93;;;18.50;99.90;;;;;;4841328;29;20054;-67
2022/07/26 07:33:51;;;;;;;4.05;1.13;;;18.60;99.90;;;;;;4857751;29;20115;-68
2022/07/26 07:36:17;;;;;;;3.08;0.77;;;18.60;99.90;;;;;;4841932;29;22004;-67
2022/07/26 07:38:46;;;;;;;4.95;0.88;;;18.80;99.90;;;;;;4842009;29;20127;-67
2022/07/26 07:41:12;;;;;;;2.83;0.90;;;19.00;99.90;;;;;;4843027;29;20109;-67
2022/07/26 07:43:37;;;;;;;3.17;0.80;;;19.20;99.90;;;;;;4841445;29;20521;-67
2022/07/26 07:46:03;;;;;;;3.38;0.70;;;19.30;99.90;;;;;;4842754;29;20058;-66
2022/07/26 07:48:29;;;;;;;4.28;0.80;;;19.30;99.90;;;;;;4842731;29;20224;-66
2022/07/26 07:50:55;;;;;;;4.13;1.10;;;19.20;99.90;;;;;;4842278;29;20057;-66
2022/07/26 07:53:20;;;;;;;2.85;0.70;;;19.10;99.90;;;;;;4842452;29;20507;-66
2022/07/26 07:55:46;;;;;;;2.22;0.75;;;19.00;99.90;;;;;;4842814;29;20053;-66
2022/07/26 07:58:12;;;;;;;3.20;0.70;;;19.00;99.90;;;;;;4840618;29;20049;-66
2022/07/26 08:00:37;;;;;;;4.07;0.70;;;19.00;99.90;;;;;;4855910;29;20062;-66
2022/07/26 08:03:03;;;;;;;2.78;0.60;;;18.90;99.90;;;;;;4841945;29;20062;-67
2022/07/26 08:05:28;;;;;;;1.70;0.82;;;18.80;99.90;;;;;;4841318;29;20068;-66
2022/07/26 08:07:54;;;;;;;2.03;0.80;;;18.60;99.90;;;;;;4841314;29;20050;-67
2022/07/26 08:10:20;;;;;;;1.95;0.60;;;18.60;99.90;;;;;;4842036;29;20502;-67
2022/07/26 08:12:45;;;;;;;4.35;0.60;;;18.60;99.90;;;;;;4840567;29;20049;-67
2022/07/26 08:15:11;;;;;;;2.85;0.57;;;18.70;99.90;;;;;;4835478;29;20049;-69
2022/07/26 08:17:37;;;;;;;1.80;0.55;;;18.90;99.90;;;;;;4841037;29;20053;-68
2022/07/26 08:20:03;;;;;;;4.18;0.60;;;19.00;99.90;;;;;;4837467;29;20133;-66
2022/07/26 08:22:28;;;;;;;2.70;0.80;;;19.40;99.90;;;;;;4840193;29;20109;-67
2022/07/26 08:24:54;;;;;;;3.15;0.65;;;19.80;99.90;;;;;;4839864;29;20057;-67
2022/07/26 08:27:19;;;;;;;4.53;0.77;;;20.30;99.90;;;;;;4839047;29;20046;-66
2022/07/26 08:29:45;;;;;;;2.65;0.73;;;20.50;99.90;;;;;;4839460;29;20054;-66
2022/07/26 08:32:11;;;;;;;5.15;0.95;;;20.70;99.90;;;;;;4839789;29;20046;-66
2022/07/26 08:34:36;;;;;;;6.25;1.30;;;20.70;99.90;;;;;;4837904;29;20057;-66
2022/07/26 08:37:02;;;;;;;2.58;0.50;;;20.60;99.90;;;;;;4840134;29;20099;-66
2022/07/26 08:39:28;;;;;;;5.28;0.70;;;20.60;99.90;;;;;;4842698;29;20054;-66
2022/07/26 08:41:53;;;;;;;4.10;1.00;;;20.60;99.90;;;;;;4841926;29;20093;-66
2022/07/26 08:44:19;;;;;;;2.00;0.68;;;20.70;99.90;;;;;;4841958;29;20080;-66
2022/07/26 08:46:44;;;;;;;2.75;0.55;;;21.00;99.90;;;;;;4841619;29;20137;-66
2022/07/26 08:49:11;;;;;;;3.13;0.85;;;21.20;99.90;;;;;;4841565;29;20057;-67
2022/07/26 08:51:42;;;;;;;4.43;0.70;;;21.40;99.90;;;;;;4841421;29;20487;-66
2022/07/26 08:54:08;;;;;;;3.35;0.70;;;21.50;99.90;;;;;;4842177;29;20080;-66
2022/07/26 08:56:40;;;;;;;2.03;0.65;;;21.50;99.90;;;;;;4841891;29;20100;-66
2022/07/26 08:59:13;;;;;;;3.63;0.52;;;21.50;99.90;;;;;;4841917;29;20062;-66
2022/07/26 09:02:11;;;;;;;4.90;1.17;;;21.30;99.90;;;;;;4841661;29;20470;-66
2022/07/26 09:04:43;;;;;;;2.95;0.82;;;21.00;99.90;;;;;;4839409;29;20149;-66
2022/07/26 09:07:18;;;;;;;1.92;0.77;;;20.70;99.90;;;;;;4839020;29;20050;-66
2022/07/26 09:10:02;;;;;;;2.50;0.80;;;20.30;99.90;;;;;;4840010;29;20144;-66
2022/07/26 09:12:29;;;;;;;4.15;0.85;;;19.80;99.90;;;;;;4840319;29;20101;-66
2022/07/26 09:14:55;;;;;;;2.80;0.50;;;19.60;99.90;;;;;;4840274;29;20491;-66
2022/07/26 09:17:24;;;;;;;3.55;0.80;;;19.40;99.90;;;;;;4840707;29;20147;-67
2022/07/26 09:20:21;;;;;;;5.25;0.90;;;19.40;99.90;;;;;;4841655;29;20057;-66
2022/07/26 09:23:02;;;;;;;2.13;0.77;;;19.50;99.90;;;;;;4838826;29;20431;-66
2022/07/26 09:25:33;;;;;;;4.38;1.08;;;19.70;99.90;;;;;;4842319;29;20407;-66
2022/07/26 09:28:00;;;;;;;3.53;0.80;;;19.90;99.90;;;;;;4845055;29;20061;-66
2022/07/26 09:30:28;;;;;;;3.97;1.00;;;20.20;99.90;;;;;;4844851;29;20061;-66
2022/07/26 09:33:05;;;;;;;3.08;0.90;;;20.50;99.90;;;;;;4843615;29;20054;-66
2022/07/26 09:35:37;;;;;;;3.42;1.15;;;20.50;99.90;;;;;;4843085;29;20182;-67
2022/07/26 09:38:12;;;;;;;2.30;0.80;;;20.40;99.90;;;;;;4841216;29;20113;-65
2022/07/26 09:40:41;;;;;;;5.90;1.20;;;20.30;99.90;;;;;;4838517;29;20076;-67
2022/07/26 09:43:07;;;;;;;3.17;0.80;;;20.30;99.90;;;;;;4842523;29;20042;-67
2022/07/26 09:45:34;;;;;;;2.40;0.73;;;20.30;99.90;;;;;;4842658;29;20049;-66
2022/07/26 09:48:02;;;;;;;4.18;0.90;;;20.20;99.90;;;;;;4843424;29;20058;-66
2022/07/26 09:50:30;;;;;;;3.17;0.82;;;20.10;99.90;;;;;;4843684;29;20390;-66
2022/07/26 09:53:07;;;;;;;3.63;0.90;;;20.10;99.90;;;;;;4843274;29;20548;-66
2022/07/26 09:55:54;;;;;;;2.17;0.75;;;20.20;99.90;;;;;;4842755;29;20159;-66
2022/07/26 09:58:22;;;;;;;3.75;0.70;;;20.20;99.90;;;;;;4841394;29;20138;-67
2022/07/26 10:00:47;;;;;;;3.90;1.05;;;20.40;99.90;;;;;;4843607;29;20062;-65
2022/07/26 10:03:13;;;;;;;5.57;1.08;;;20.50;99.90;;;;;;4843523;29;20122;-66
2022/07/26 10:05:39;;;;;;;2.80;0.90;;;20.60;99.90;;;;;;4841283;29;20065;-66
2022/07/26 10:08:05;;;;;;;5.25;1.13;;;20.70;99.90;;;;;;4842629;29;20057;-66
2022/07/26 10:10:35;;;;;;;4.90;0.98;;;20.50;99.90;;;;;;4844102;29;20511;-66
2022/07/26 10:13:02;;;;;;;4.97;1.33;;;20.30;99.90;;;;;;4842944;29;20137;-66
2022/07/26 10:15:41;;;;;;;6.35;1.20;;;20.20;99.90;;;;;;4841898;29;20499;-66
2022/07/26 10:18:08;;;;;;;4.40;1.52;;;20.10;99.90;;;;;;4841932;29;20068;-66
2022/07/26 10:20:51;;;;;;;5.47;1.17;;;19.90;99.90;;;;;;4843605;29;20508;-66
2022/07/26 10:23:35;;;;;;;;;;;20.00;99.90;;;;;;4843709;29;20054;-67
2022/07/26 10:26:01;;;;;;;5.40;1.10;;;20.00;99.90;;;;;;4831589;29;20320;-66
2022/07/26 10:28:29;;;;;;;2.58;0.80;;;20.20;99.90;;;;;;4843823;29;20054;-66
2022/07/26 10:31:25;;;;;;;4.68;1.30;;;20.30;99.90;;;;;;4842894;29;20065;-66
2022/07/26 10:33:52;;;;;;;2.70;0.90;;;20.40;99.90;;;;;;4842485;29;20054;-65
2022/07/26 10:36:28;;;;;;;3.30;1.00;;;20.50;99.90;;;;;;4841898;29;20446;-66
2022/07/26 10:39:15;;;;;;;5.60;1.20;;;20.40;99.90;;;;;;4843426;29;20093;-66
2022/07/26 10:41:57;;;;;;;4.88;1.60;;;20.40;99.90;;;;;;4842494;29;20054;-66
2022/07/26 10:44:31;;;;;;;4.05;1.55;;;20.20;99.90;;;;;;4843357;29;20061;-67
2022/07/26 10:47:17;;;;;;;6.95;1.88;;;20.00;99.90;;;;;;4841823;29;20061;-66
2022/07/26 10:49:51;;;;;;;4.85;1.55;;;19.80;99.90;;;;;;4842375;29;20065;-66
2022/07/26 10:52:19;;;;;;;4.38;1.73;;;19.60;99.90;;;;;;4842610;29;20062;-66
2022/07/26 10:54:59;;;;;;;4.82;1.67;;;19.50;99.90;;;;;;4842666;29;20066;-67
2022/07/26 10:57:26;;;;;;;7.43;1.90;;;19.50;99.90;;;;;;4842539;29;20064;-66
2022/07/26 10:59:51;;;;;;;7.00;2.22;;;19.60;99.90;;;;;;4843161;29;20511;-66
2022/07/26 11:02:20;;;;;;;8.32;2.03;;;19.70;99.90;;;;;;4843129;29;20058;-66
2022/07/26 11:04:47;;;;;;;8.20;2.33;;;19.90;99.90;;;;;;4843581;29;20058;-67
2022/07/26 11:07:13;;;;;;;8.27;1.90;;;20.20;99.90;;;;;;4841111;29;20451;-66
2022/07/26 11:09:38;;;;;;;6.60;2.00;;;20.40;99.90;;;;;;4841866;29;20045;-65
2022/07/26 11:12:17;;;;;;;8.07;1.83;;;20.60;99.90;;;;;;4842730;29;20111;-65
2022/07/26 11:14:43;;;;;;;5.03;1.52;;;20.80;99.90;;;;;;4841465;29;20061;-66
2022/07/26 11:17:23;;;;;;;5.57;1.60;;;21.00;99.90;;;;;;4842859;29;20050;-67
2022/07/26 11:19:48;;;;;;;7.50;1.90;;;21.30;99.90;;;;;;4842889;29;20057;-66
2022/07/26 11:22:14;;;;;;;6.88;1.60;;;21.20;99.90;;;;;;4841781;29;20057;-66
2022/07/26 11:24:40;;;;;;;5.97;1.70;;;21.30;99.90;;;;;;4842614;29;20142;-65
2022/07/26 11:27:05;;;;;;;6.25;1.73;;;21.10;99.90;;;;;;4842941;29;20061;-66
2022/07/26 11:29:33;;;;;;;6.15;1.58;;;21.10;99.90;;;;;;4842849;29;20100;-66
2022/07/26 11:32:00;;;;;;;6.28;1.50;;;20.90;99.90;;;;;;4857082;29;20057;-66
2022/07/26 11:34:28;;;;;;;4.20;1.33;;;20.90;99.90;;;;;;4841680;29;20050;-66
2022/07/26 11:36:56;;;;;;;5.68;1.30;;;20.70;99.90;;;;;;4841616;29;20059;-66
2022/07/26 11:39:24;;;;;;;5.03;1.73;;;20.70;99.90;;;;;;4842434;29;20065;-65
2022/07/26 11:41:55;;;;;;;3.67;1.45;;;20.50;99.90;;;;;;4841179;29;20053;-65
2022/07/26 11:44:22;;;;;;;7.47;1.52;;;20.50;99.90;;;;;;4842580;29;20081;-66
2022/07/26 11:46:49;;;;;;;6.95;1.85;;;20.70;99.90;;;;;;4842656;29;20050;-66
2022/07/26 11:49:22;;;;;;;5.93;1.40;;;20.80;99.90;;;;;;4841952;29;20058;-66
2022/07/26 11:51:59;;;;;;;7.03;1.65;;;20.80;99.90;;;;;;4841326;29;20515;-65
2022/07/26 11:54:27;;;;;;;5.72;1.40;;;20.50;99.90;;;;;;4842404;29;20061;-66
2022/07/26 11:57:03;;;;;;;4.68;1.33;;;20.40;99.90;;;;;;4841501;29;20128;-66
2022/07/26 11:59:34;;;;;;;4.75;1.52;;;20.40;99.90;;;;;;4842368;29;20420;-66
2022/07/26 12:02:02;;;;;;;5.95;1.50;;;20.60;99.90;;;;;;4841528;29;20056;-67
2022/07/26 12:04:31;;;;;;;4.68;1.58;;;20.70;99.90;;;;;;4841212;29;20096;-66
2022/07/26 12:06:58;;;;;;;2.28;1.13;;;20.90;99.90;;;;;;4840888;29;20492;-66
2022/07/26 12:09:49;;;;;;;6.55;1.50;;;21.10;99.90;;;;;;4841381;29;20157;-66
2022/07/26 12:12:30;;;;;;;4.72;1.05;;;21.30;99.20;;;;;;4841150;29;20073;-67
2022/07/26 12:15:00;;;;;;;3.78;1.20;;;21.40;96.50;;;;;;4841385;29;20052;-65
2022/07/26 12:17:34;;;;;;;5.68;1.23;;;21.20;93.60;;;;;;4840766;29;20492;-66
2022/07/26 12:20:26;;;;;;;4.50;1.02;;;21.20;96.10;;;;;;4841129;29;20085;-66
2022/07/26 12:22:59;;;;;;;4.47;1.00;;;21.00;90.80;;;;;;4840026;29;20050;-66
2022/07/26 12:25:50;;;;;;;3.65;1.00;;;21.00;93.80;;;;;;4840980;29;20054;-66
2022/07/26 12:28:15;;;;;;;3.95;1.10;;;21.00;90.10;;;;;;4842216;29;20085;-66
2022/07/26 12:30:44;;;;;;;4.75;1.13;;;20.90;95.00;;;;;;4841845;29;20106;-66
2022/07/26 12:33:13;;;;;;;3.70;1.17;;;20.80;95.10;;;;;;4825720;29;20072;-66
2022/07/26 12:35:40;;;;;;;2.88;1.00;;;20.70;92.90;;;;;;4841677;29;20125;-66
2022/07/26 12:38:10;;;;;;;4.45;1.23;;;20.80;95.90;;;;;;4841461;29;20054;-66
2022/07/26 12:40:40;;;;;;;3.17;1.00;;;20.90;95.30;;;;;;4841925;29;20073;-66
2022/07/26 12:43:08;;;;;;;3.97;0.93;;;20.90;94.00;;;;;;4841905;29;20058;-66
2022/07/26 12:45:38;;;;;;;3.58;1.02;;;21.00;91.80;;;;;;4840051;29;20551;-65
2022/07/26 12:48:09;;;;;;;4.85;0.90;;;21.00;93.10;;;;;;4825524;29;20072;-65
2022/07/26 12:50:35;;;;;;;3.20;0.98;;;21.10;92.30;;;;;;4840329;29;20057;-65
2022/07/26 12:53:04;;;;;;;3.78;1.00;;;21.20;91.50;;;;;;4841855;29;20042;-65
2022/07/26 12:55:29;;;;;;;3.38;1.00;;;21.10;89.50;;;;;;4842118;29;20054;-65